Time;durP1;ratioP1;P1;durP2;ratioP2;P2;SDS_P1;SDS_P2;PMS_P1;PMS_P2;Temp;Humidity;BMP_temperature;BMP_pressure;BME280_temperature;BME280_humidity;BME280_pressure;Samples;Min_cycle;Max_cycle;Signal;HPM_P1;HPM_P2
2023/12/24 00:00:21;;;;;;;14.55;9.07;;;;;;;;;;2092747;28;20037;-77
2023/12/24 00:01:44;;;;;;;14.48;9.90;;;;;;;;;;2095711;28;20084;-76
2023/12/24 00:03:04;;;;;;;14.35;9.20;;;;;;;;;;2090603;28;20029;-76
2023/12/24 00:04:25;;;;;;;13.18;8.50;;;;;;;;;;2098405;28;20166;-76
2023/12/24 00:05:46;;;;;;;16.27;8.40;;;;;;;;;;2093574;28;20044;-76
2023/12/24 00:07:07;;;;;;;14.70;8.15;;;;;;;;;;2100324;28;20360;-77
2023/12/24 00:08:28;;;;;;;12.93;8.65;;;;;;;;;;2095100;28;20025;-76
2023/12/24 00:09:49;;;;;;;15.48;9.13;;;;;;;;;;2091336;28;20024;-74
2023/12/24 00:11:10;;;;;;;13.30;9.27;;;;;;;;;;2091260;28;20846;-76
2023/12/24 00:12:31;;;;;;;17.88;9.18;;;;;;;;;;2090536;28;20086;-76
2023/12/24 00:13:52;;;;;;;15.32;8.48;;;;;;;;;;2102790;28;20062;-76
2023/12/24 00:15:15;;;;;;;12.80;9.20;;;;;;;;;;2094508;28;20416;-76
2023/12/24 00:16:39;;;;;;;13.45;8.27;;;;;;;;;;2092173;28;20045;-76
2023/12/24 00:18:00;;;;;;;17.70;9.10;;;;;;;;;;2094925;28;20033;-76
2023/12/24 00:19:21;;;;;;;13.85;8.18;;;;;;;;;;2095075;28;20024;-77
2023/12/24 00:20:42;;;;;;;14.35;9.27;;;;;;;;;;2096621;28;20565;-76
2023/12/24 00:22:05;;;;;;;15.68;9.43;;;;;;;;;;2102657;28;20089;-77
2023/12/24 00:23:25;;;;;;;14.70;8.77;;;;;;;;;;2102740;28;20032;-76
2023/12/24 00:24:46;;;;;;;13.85;9.38;;;;;;;;;;2096838;28;20507;-76
2023/12/24 00:26:08;;;;;;;18.52;11.05;;;;;;;;;;2101931;28;20161;-77
2023/12/24 00:27:29;;;;;;;14.18;9.43;;;;;;;;;;2101893;28;20403;-76
2023/12/24 00:28:51;;;;;;;16.15;9.95;;;;;;;;;;2096701;28;20031;-76
2023/12/24 00:30:12;;;;;;;14.93;10.43;;;;;;;;;;2104799;28;20049;-76
2023/12/24 00:31:33;;;;;;;15.98;10.32;;;;;;;;;;2102432;28;20043;-75
2023/12/24 00:32:54;;;;;;;17.13;10.85;;;;;;;;;;2106083;28;20024;-76
2023/12/24 00:34:15;;;;;;;17.40;10.40;;;;;;;;;;2097240;28;20028;-76
2023/12/24 00:35:36;;;;;;;18.40;10.15;;;;;;;;;;2109518;28;20043;-76
2023/12/24 00:36:57;;;;;;;15.68;10.95;;;;;;;;;;2106066;28;20024;-76
2023/12/24 00:38:17;;;;;;;17.15;10.25;;;;;;;;;;2103130;28;20115;-77
2023/12/24 00:39:38;;;;;;;13.90;9.90;;;;;;;;;;2096574;28;20111;-77
2023/12/24 00:40:59;;;;;;;17.77;9.50;;;;;;;;;;2094225;28;20029;-77
2023/12/24 00:42:23;;;;;;;13.93;9.60;;;;;;;;;;2093931;28;20029;-77
2023/12/24 00:43:45;;;;;;;12.65;9.13;;;;;;;;;;2102645;28;20468;-76
2023/12/24 00:45:06;;;;;;;;;;;;;;;;;;2100787;28;20060;-76
2023/12/24 00:46:27;;;;;;;14.02;9.00;;;;;;;;;;2097664;28;19920;-76
2023/12/24 00:47:47;;;;;;;15.60;8.88;;;;;;;;;;2088608;28;20175;-76
2023/12/24 00:49:08;;;;;;;14.98;9.55;;;;;;;;;;2101233;28;20028;-76
2023/12/24 00:50:29;;;;;;;13.10;8.40;;;;;;;;;;2096585;28;20025;-76
2023/12/24 00:51:51;;;;;;;11.55;8.63;;;;;;;;;;2095686;28;20511;-76
2023/12/24 00:53:12;;;;;;;;;;;;;;;;;;2106390;28;20032;-76
2023/12/24 00:54:33;;;;;;;13.95;8.23;;;;;;;;;;2096666;28;19904;-75
2023/12/24 00:55:54;;;;;;;15.90;9.18;;;;;;;;;;2101478;28;20036;-77
2023/12/24 00:57:15;;;;;;;12.77;8.25;;;;;;;;;;2098836;28;20028;-76
2023/12/24 00:58:36;;;;;;;9.57;7.85;;;;;;;;;;2096241;28;20119;-76
2023/12/24 00:59:57;;;;;;;10.18;8.30;;;;;;;;;;2102579;28;20071;-76
2023/12/24 01:01:17;;;;;;;14.73;9.02;;;;;;;;;;2105913;28;20036;-76
2023/12/24 01:02:39;;;;;;;13.13;7.95;;;;;;;;;;2104492;28;20028;-76
2023/12/24 01:03:59;;;;;;;15.57;7.82;;;;;;;;;;2097756;28;20437;-77
2023/12/24 01:05:20;;;;;;;13.80;7.47;;;;;;;;;;2084691;28;20044;-77
2023/12/24 01:06:41;;;;;;;15.55;7.82;;;;;;;;;;2098753;28;20032;-76
2023/12/24 01:08:02;;;;;;;11.00;7.80;;;;;;;;;;2105061;28;20036;-77
2023/12/24 01:09:23;;;;;;;8.77;7.30;;;;;;;;;;2105972;28;20081;-76
2023/12/24 01:10:44;;;;;;;9.98;7.03;;;;;;;;;;2090629;28;20098;-76
2023/12/24 01:12:05;;;;;;;10.95;6.78;;;;;;;;;;2089665;28;20081;-76
2023/12/24 01:13:26;;;;;;;10.23;7.27;;;;;;;;;;2086117;28;20056;-76
2023/12/24 01:14:47;;;;;;;10.82;7.75;;;;;;;;;;2087016;28;20029;-77
2023/12/24 01:16:08;;;;;;;12.75;8.25;;;;;;;;;;2084929;28;20033;-76
2023/12/24 01:17:29;;;;;;;14.88;7.85;;;;;;;;;;2082356;28;20037;-75
2023/12/24 01:18:51;;;;;;;12.68;7.90;;;;;;;;;;2083581;28;20037;-76
2023/12/24 01:20:12;;;;;;;;;;;;;;;;;;2087844;28;20401;-76
2023/12/24 01:21:33;;;;;;;12.90;7.70;;;;;;;;;;2083860;28;19923;-77
2023/12/24 01:22:53;;;;;;;14.02;8.30;;;;;;;;;;2081982;28;20033;-76
2023/12/24 01:24:15;;;;;;;11.10;7.82;;;;;;;;;;2082728;28;20049;-77
2023/12/24 01:25:35;;;;;;;13.55;7.65;;;;;;;;;;2086125;28;20087;-77
2023/12/24 01:26:56;;;;;;;10.43;7.38;;;;;;;;;;2088717;28;20032;-77
2023/12/24 01:28:17;;;;;;;11.73;7.10;;;;;;;;;;2086079;28;20029;-77
2023/12/24 01:29:38;;;;;;;10.43;7.78;;;;;;;;;;2085287;28;20068;-77
2023/12/24 01:30:59;;;;;;;10.80;6.88;;;;;;;;;;2088010;28;20481;-76
2023/12/24 01:32:20;;;;;;;11.60;7.75;;;;;;;;;;2081777;28;20108;-75
2023/12/24 01:33:41;;;;;;;12.82;6.82;;;;;;;;;;2084923;28;20028;-74
2023/12/24 01:35:02;;;;;;;14.15;8.93;;;;;;;;;;2086599;28;20082;-75
2023/12/24 01:36:23;;;;;;;16.05;7.85;;;;;;;;;;2085612;28;20041;-74
2023/12/24 01:37:44;;;;;;;13.57;7.90;;;;;;;;;;2086407;28;20032;-74
2023/12/24 01:39:07;;;;;;;14.43;7.50;;;;;;;;;;2084568;28;20380;-77
2023/12/24 01:40:28;;;;;;;15.00;8.73;;;;;;;;;;2083502;28;20382;-78
2023/12/24 01:41:49;;;;;;;11.10;8.45;;;;;;;;;;2089777;28;20086;-77
2023/12/24 01:43:10;;;;;;;14.30;9.82;;;;;;;;;;2088562;28;20037;-77
2023/12/24 01:44:30;;;;;;;13.57;8.60;;;;;;;;;;2085446;28;20037;-75
2023/12/24 01:45:51;;;;;;;14.35;9.02;;;;;;;;;;2082755;28;20206;-75
2023/12/24 01:47:12;;;;;;;19.63;7.60;;;;;;;;;;2084027;28;20060;-74
2023/12/24 01:48:33;;;;;;;14.63;8.63;;;;;;;;;;2086171;28;20048;-75
2023/12/24 01:49:55;;;;;;;12.63;8.32;;;;;;;;;;2086514;28;20091;-74
2023/12/24 01:51:17;;;;;;;16.80;9.07;;;;;;;;;;2086926;28;20128;-75
2023/12/24 01:52:38;;;;;;;20.73;8.95;;;;;;;;;;2082949;28;20025;-75
2023/12/24 01:53:58;;;;;;;14.85;8.52;;;;;;;;;;2085684;28;20056;-77
2023/12/24 01:55:20;;;;;;;14.98;9.10;;;;;;;;;;2086859;28;20025;-76
2023/12/24 01:56:41;;;;;;;20.10;9.13;;;;;;;;;;2088502;28;20033;-76
2023/12/24 01:58:03;;;;;;;15.82;8.95;;;;;;;;;;2088137;28;20992;-76
2023/12/24 01:59:24;;;;;;;15.27;7.45;;;;;;;;;;2088595;28;20431;-75
2023/12/24 02:00:46;;;;;;;15.00;8.10;;;;;;;;;;2088219;28;20029;-75
2023/12/24 02:02:08;;;;;;;11.10;7.35;;;;;;;;;;2087677;28;20040;-79
2023/12/24 02:03:28;;;;;;;16.10;8.38;;;;;;;;;;2088111;28;20484;-76
2023/12/24 02:04:49;;;;;;;16.42;9.13;;;;;;;;;;2084660;28;20095;-75
2023/12/24 02:06:10;;;;;;;16.98;9.70;;;;;;;;;;2088148;28;20045;-75
2023/12/24 02:07:34;;;;;;;13.38;8.27;;;;;;;;;;2088122;28;20029;-76
2023/12/24 02:08:55;;;;;;;18.20;8.93;;;;;;;;;;2085120;28;20107;-75
2023/12/24 02:10:17;;;;;;;18.98;8.93;;;;;;;;;;2091948;28;20051;-76
2023/12/24 02:11:38;;;;;;;16.05;8.57;;;;;;;;;;2099609;28;20519;-75
2023/12/24 02:12:59;;;;;;;17.10;9.98;;;;;;;;;;2099119;28;20039;-75
2023/12/24 02:14:19;;;;;;;17.50;9.38;;;;;;;;;;2094335;28;20029;-75
2023/12/24 02:15:41;;;;;;;17.40;9.35;;;;;;;;;;2092172;28;20025;-75
2023/12/24 02:17:02;;;;;;;17.20;9.00;;;;;;;;;;2101400;28;20036;-75
2023/12/24 02:18:24;;;;;;;17.67;10.25;;;;;;;;;;2095988;28;20048;-75
2023/12/24 02:19:45;;;;;;;14.77;8.60;;;;;;;;;;2094106;28;20031;-75
2023/12/24 02:21:06;;;;;;;16.90;9.00;;;;;;;;;;2095110;28;20036;-76
2023/12/24 02:22:27;;;;;;;21.15;9.50;;;;;;;;;;2092485;28;20188;-75
2023/12/24 02:23:48;;;;;;;15.68;8.45;;;;;;;;;;2092588;28;20076;-75
2023/12/24 02:25:09;;;;;;;16.10;8.50;;;;;;;;;;2095344;28;20032;-75
2023/12/24 02:26:35;;;;;;;17.17;9.15;;;;;;;;;;2092677;28;20110;-75
2023/12/24 02:28:01;;;;;;;14.52;8.48;;;;;;;;;;2093914;28;20082;-76
2023/12/24 02:29:48;;;;;;;15.57;9.60;;;;;;;;;;2096388;28;20033;-75
2023/12/24 02:31:10;;;;;;;15.35;9.68;;;;;;;;;;2095776;28;20025;-76
2023/12/24 02:32:33;;;;;;;17.17;9.90;;;;;;;;;;2093818;28;20032;-76
2023/12/24 02:33:55;;;;;;;18.00;9.88;;;;;;;;;;2099829;28;20021;-74
2023/12/24 02:35:16;;;;;;;14.27;9.63;;;;;;;;;;2093684;28;20031;-76
2023/12/24 02:36:37;;;;;;;20.65;10.75;;;;;;;;;;2090981;28;20037;-76
2023/12/24 02:37:58;;;;;;;16.45;9.90;;;;;;;;;;2098890;28;20031;-75
2023/12/24 02:39:19;;;;;;;18.30;10.82;;;;;;;;;;2091164;28;20032;-75
2023/12/24 02:40:40;;;;;;;15.07;10.00;;;;;;;;;;2093171;28;20020;-76
2023/12/24 02:42:01;;;;;;;21.25;9.73;;;;;;;;;;2092797;28;20040;-76
2023/12/24 02:43:22;;;;;;;14.95;10.13;;;;;;;;;;2090647;28;20102;-77
2023/12/24 02:44:43;;;;;;;17.73;10.90;;;;;;;;;;2089970;28;20036;-75
2023/12/24 02:46:04;;;;;;;15.73;9.85;;;;;;;;;;2088393;28;20090;-76
2023/12/24 02:47:25;;;;;;;17.80;10.32;;;;;;;;;;2094316;28;20545;-75
2023/12/24 02:48:46;;;;;;;20.77;10.95;;;;;;;;;;2093454;28;20045;-75
2023/12/24 02:50:07;;;;;;;17.80;9.98;;;;;;;;;;2080550;28;20025;-77
2023/12/24 02:51:28;;;;;;;17.23;10.63;;;;;;;;;;2099015;28;20161;-75
2023/12/24 02:52:49;;;;;;;18.42;9.27;;;;;;;;;;2091238;28;20047;-76
2023/12/24 02:54:10;;;;;;;20.77;9.85;;;;;;;;;;2095124;28;20028;-76
2023/12/24 02:55:31;;;;;;;16.25;9.13;;;;;;;;;;2096987;28;20104;-76
2023/12/24 02:56:52;;;;;;;16.45;9.60;;;;;;;;;;2092532;28;20041;-76
2023/12/24 02:58:13;;;;;;;17.15;9.70;;;;;;;;;;2090443;28;20044;-76
2023/12/24 02:59:34;;;;;;;15.43;10.32;;;;;;;;;;2096201;28;20373;-76
2023/12/24 03:00:55;;;;;;;17.02;9.10;;;;;;;;;;2096246;28;20037;-76
2023/12/24 03:02:16;;;;;;;18.10;9.63;;;;;;;;;;2087281;28;20056;-76
2023/12/24 03:03:36;;;;;;;15.60;9.35;;;;;;;;;;2095374;28;20143;-76
2023/12/24 03:04:57;;;;;;;14.57;8.85;;;;;;;;;;2096334;28;20424;-76
2023/12/24 03:06:18;;;;;;;17.23;9.30;;;;;;;;;;2091833;28;20048;-76
2023/12/24 03:07:39;;;;;;;17.27;8.85;;;;;;;;;;2088657;28;20036;-74
2023/12/24 03:09:00;;;;;;;15.88;9.85;;;;;;;;;;2080465;28;20021;-77
2023/12/24 03:10:21;;;;;;;13.82;8.98;;;;;;;;;;2087442;28;20037;-75
2023/12/24 03:11:42;;;;;;;15.80;9.85;;;;;;;;;;2085998;28;20428;-75
2023/12/24 03:13:03;;;;;;;14.15;9.43;;;;;;;;;;2088423;28;20033;-76
2023/12/24 03:14:24;;;;;;;15.45;10.18;;;;;;;;;;2088843;28;20025;-76
2023/12/24 03:15:45;;;;;;;15.77;9.77;;;;;;;;;;2085246;28;20029;-77
2023/12/24 03:17:05;;;;;;;19.02;9.93;;;;;;;;;;2093490;28;20025;-76
2023/12/24 03:18:26;;;;;;;16.58;9.80;;;;;;;;;;2090128;28;20412;-77
2023/12/24 03:19:47;;;;;;;15.18;9.68;;;;;;;;;;2088425;28;20025;-76
2023/12/24 03:21:08;;;;;;;16.42;9.77;;;;;;;;;;2089828;28;20029;-77
2023/12/24 03:22:29;;;;;;;17.50;10.00;;;;;;;;;;2089213;28;20660;-77
2023/12/24 03:23:50;;;;;;;17.25;9.43;;;;;;;;;;2085193;28;20526;-76
2023/12/24 03:25:11;;;;;;;16.73;8.90;;;;;;;;;;2086847;28;20143;-77
2023/12/24 03:26:32;;;;;;;15.18;9.45;;;;;;;;;;2084320;28;20048;-77
2023/12/24 03:27:53;;;;;;;20.65;11.93;;;;;;;;;;2087338;28;20040;-77
2023/12/24 03:29:16;;;;;;;18.70;10.10;;;;;;;;;;2088054;28;20555;-77
2023/12/24 03:30:36;;;;;;;16.50;9.32;;;;;;;;;;2088369;28;20120;-77
2023/12/24 03:31:57;;;;;;;15.75;9.75;;;;;;;;;;2087670;28;20025;-76
2023/12/24 03:33:18;;;;;;;14.02;10.43;;;;;;;;;;2086270;28;20033;-77
2023/12/24 03:34:40;;;;;;;14.60;9.18;;;;;;;;;;2085445;28;20029;-76
2023/12/24 03:36:01;;;;;;;13.20;10.60;;;;;;;;;;2083305;28;20029;-77
2023/12/24 03:37:22;;;;;;;12.27;9.35;;;;;;;;;;2083703;28;20025;-77
2023/12/24 03:38:43;;;;;;;18.80;11.05;;;;;;;;;;2086566;28;20493;-77
2023/12/24 03:40:04;;;;;;;15.85;8.45;;;;;;;;;;2090083;28;20094;-77
2023/12/24 03:41:25;;;;;;;12.98;8.35;;;;;;;;;;2083835;28;20111;-76
2023/12/24 03:42:46;;;;;;;13.75;8.45;;;;;;;;;;2086141;28;20025;-77
2023/12/24 03:44:07;;;;;;;12.68;8.43;;;;;;;;;;2086191;28;20086;-77
2023/12/24 03:45:29;;;;;;;11.82;8.25;;;;;;;;;;2084850;28;20481;-77
2023/12/24 03:46:50;;;;;;;14.13;9.07;;;;;;;;;;2083981;28;20045;-76
2023/12/24 03:48:11;;;;;;;16.17;8.70;;;;;;;;;;2085969;28;20091;-77
2023/12/24 03:49:32;;;;;;;15.25;9.20;;;;;;;;;;2084043;28;20022;-77
2023/12/24 03:50:53;;;;;;;16.50;9.52;;;;;;;;;;2084501;28;20029;-77
2023/12/24 03:52:14;;;;;;;11.50;9.02;;;;;;;;;;2085970;28;20021;-76
2023/12/24 03:53:37;;;;;;;12.23;8.48;;;;;;;;;;2086402;28;20029;-78
2023/12/24 03:54:58;;;;;;;14.20;9.30;;;;;;;;;;2084759;28;20025;-77
2023/12/24 03:56:19;;;;;;;11.95;9.10;;;;;;;;;;2087077;28;20500;-77
2023/12/24 03:57:39;;;;;;;11.25;8.38;;;;;;;;;;2085309;28;20033;-77
2023/12/24 03:59:00;;;;;;;14.82;9.35;;;;;;;;;;2086264;28;20029;-77
2023/12/24 04:00:21;;;;;;;11.27;8.48;;;;;;;;;;2087762;28;20037;-77
2023/12/24 04:01:42;;;;;;;12.50;8.80;;;;;;;;;;2088781;28;20481;-77
2023/12/24 04:03:03;;;;;;;10.55;8.25;;;;;;;;;;2087236;28;20033;-77
2023/12/24 04:04:24;;;;;;;12.52;8.60;;;;;;;;;;2088556;28;20025;-77
2023/12/24 04:05:45;;;;;;;10.35;8.52;;;;;;;;;;2088279;28;20037;-77
2023/12/24 04:07:06;;;;;;;16.15;9.52;;;;;;;;;;2092804;28;20396;-77
2023/12/24 04:08:27;;;;;;;12.55;8.88;;;;;;;;;;2085298;28;20037;-77
2023/12/24 04:09:48;;;;;;;11.68;8.98;;;;;;;;;;2093482;28;20078;-76
2023/12/24 04:11:12;;;;;;;12.40;9.02;;;;;;;;;;2085810;28;20417;-78
2023/12/24 04:12:33;;;;;;;13.95;9.60;;;;;;;;;;2086602;28;20052;-78
2023/12/24 04:13:54;;;;;;;13.75;8.90;;;;;;;;;;2082782;28;20032;-77
2023/12/24 04:15:15;;;;;;;13.98;8.60;;;;;;;;;;2091433;28;20086;-77
2023/12/24 04:16:36;;;;;;;11.85;7.45;;;;;;;;;;2086728;28;20037;-77
2023/12/24 04:17:57;;;;;;;12.50;7.70;;;;;;;;;;2083811;28;20079;-77
2023/12/24 04:19:18;;;;;;;10.93;8.27;;;;;;;;;;2092609;28;20415;-77
2023/12/24 04:20:39;;;;;;;11.50;8.32;;;;;;;;;;2085262;28;20100;-77
2023/12/24 04:21:59;;;;;;;12.48;8.45;;;;;;;;;;2096223;28;20020;-77
2023/12/24 04:23:20;;;;;;;11.18;7.60;;;;;;;;;;2086755;28;20032;-77
2023/12/24 04:24:41;;;;;;;12.50;8.93;;;;;;;;;;2085041;28;20502;-78
2023/12/24 04:26:02;;;;;;;12.02;8.25;;;;;;;;;;2093661;28;20028;-77
2023/12/24 04:27:23;;;;;;;9.45;8.15;;;;;;;;;;2088319;28;20114;-77
2023/12/24 04:28:44;;;;;;;10.80;7.90;;;;;;;;;;2090034;28;20025;-77
2023/12/24 04:30:05;;;;;;;14.45;8.55;;;;;;;;;;2096201;28;20032;-78
2023/12/24 04:31:26;;;;;;;11.80;7.72;;;;;;;;;;2087401;28;20311;-76
2023/12/24 04:32:47;;;;;;;11.38;7.72;;;;;;;;;;2093529;28;20025;-77
2023/12/24 04:34:08;;;;;;;12.52;8.68;;;;;;;;;;2085552;28;20499;-77
2023/12/24 04:35:29;;;;;;;10.98;7.80;;;;;;;;;;2091276;28;20036;-77
2023/12/24 04:36:50;;;;;;;13.63;8.43;;;;;;;;;;2087066;28;20033;-77
2023/12/24 04:38:11;;;;;;;11.48;8.25;;;;;;;;;;2092357;28;20059;-79
2023/12/24 04:39:32;;;;;;;8.52;7.28;;;;;;;;;;2091238;28;20052;-76
2023/12/24 04:40:53;;;;;;;13.25;8.95;;;;;;;;;;2088518;28;20029;-76
2023/12/24 04:42:14;;;;;;;10.98;8.20;;;;;;;;;;2092153;28;20055;-77
2023/12/24 04:43:35;;;;;;;11.52;7.97;;;;;;;;;;2092278;28;20036;-77
2023/12/24 04:44:55;;;;;;;13.48;8.35;;;;;;;;;;2083831;28;20029;-77
2023/12/24 04:46:16;;;;;;;9.98;7.82;;;;;;;;;;2083997;28;20032;-77
2023/12/24 04:47:37;;;;;;;11.02;7.95;;;;;;;;;;2092217;28;20040;-78
2023/12/24 04:48:58;;;;;;;13.30;8.55;;;;;;;;;;2094417;28;20028;-77
2023/12/24 04:50:19;;;;;;;11.02;8.43;;;;;;;;;;2096021;28;20036;-77
2023/12/24 04:51:41;;;;;;;11.85;8.00;;;;;;;;;;2091060;28;20217;-78
2023/12/24 04:53:02;;;;;;;9.25;7.32;;;;;;;;;;2087600;28;20087;-77
2023/12/24 04:54:22;;;;;;;10.95;8.18;;;;;;;;;;2093092;28;20474;-77
2023/12/24 04:55:44;;;;;;;11.57;8.35;;;;;;;;;;2084963;28;20113;-78
2023/12/24 04:57:05;;;;;;;12.10;8.13;;;;;;;;;;2089809;28;20400;-77
2023/12/24 04:58:25;;;;;;;9.77;7.57;;;;;;;;;;2086620;28;20926;-78
2023/12/24 04:59:46;;;;;;;11.68;7.63;;;;;;;;;;2081971;28;20373;-77
2023/12/24 05:01:07;;;;;;;13.50;7.50;;;;;;;;;;2094761;28;20033;-77
2023/12/24 05:02:28;;;;;;;10.63;8.10;;;;;;;;;;2089283;28;20033;-78
2023/12/24 05:03:49;;;;;;;11.10;7.38;;;;;;;;;;2098054;28;20025;-77
2023/12/24 05:05:10;;;;;;;11.57;8.32;;;;;;;;;;2095496;28;20467;-78
2023/12/24 05:06:31;;;;;;;12.95;9.50;;;;;;;;;;2094643;28;20029;-78
2023/12/24 05:07:52;;;;;;;10.13;7.75;;;;;;;;;;2093346;28;20037;-77
2023/12/24 05:09:13;;;;;;;10.85;7.85;;;;;;;;;;2083891;28;20035;-78
2023/12/24 05:10:34;;;;;;;9.63;7.72;;;;;;;;;;2092491;28;20405;-77
2023/12/24 05:11:55;;;;;;;10.40;8.13;;;;;;;;;;2087762;28;20147;-79
2023/12/24 05:13:15;;;;;;;9.50;7.53;;;;;;;;;;2091550;28;20020;-78
2023/12/24 05:14:36;;;;;;;11.57;7.70;;;;;;;;;;2094996;28;20496;-78
2023/12/24 05:15:57;;;;;;;11.45;7.82;;;;;;;;;;2096287;28;20028;-78
2023/12/24 05:17:18;;;;;;;10.68;7.90;;;;;;;;;;2090854;28;20570;-78
2023/12/24 05:18:39;;;;;;;13.00;8.35;;;;;;;;;;2092778;28;20044;-77
2023/12/24 05:20:00;;;;;;;11.25;7.70;;;;;;;;;;2095137;28;20285;-78
2023/12/24 05:21:21;;;;;;;12.93;8.73;;;;;;;;;;2087046;28;20377;-78
2023/12/24 05:22:42;;;;;;;12.20;8.40;;;;;;;;;;2090982;28;20067;-78
2023/12/24 05:24:03;;;;;;;10.88;8.27;;;;;;;;;;2085234;28;20037;-78
2023/12/24 05:25:24;;;;;;;10.80;7.78;;;;;;;;;;2082204;28;20038;-78
2023/12/24 05:26:45;;;;;;;10.82;8.43;;;;;;;;;;2084649;28;20123;-78
2023/12/24 05:28:08;;;;;;;12.73;8.25;;;;;;;;;;2084878;28;20477;-78
2023/12/24 05:29:29;;;;;;;10.02;6.80;;;;;;;;;;2087193;28;20485;-78
2023/12/24 05:30:49;;;;;;;9.60;7.32;;;;;;;;;;2089791;28;20017;-78
2023/12/24 05:32:10;;;;;;;11.25;7.60;;;;;;;;;;2085053;28;20075;-78
2023/12/24 05:33:31;;;;;;;11.15;7.53;;;;;;;;;;2080423;28;20378;-78
2023/12/24 05:34:53;;;;;;;11.25;8.35;;;;;;;;;;2084191;28;20041;-79
2023/12/24 05:36:14;;;;;;;12.07;8.10;;;;;;;;;;2080369;28;20135;-78
2023/12/24 05:37:35;;;;;;;12.35;8.05;;;;;;;;;;2092476;28;20450;-79
2023/12/24 05:38:55;;;;;;;10.52;7.80;;;;;;;;;;2086909;28;20037;-78
2023/12/24 05:40:16;;;;;;;10.35;7.97;;;;;;;;;;2081927;28;20110;-78
2023/12/24 05:41:37;;;;;;;12.73;9.02;;;;;;;;;;2090268;28;20031;-79
2023/12/24 05:42:58;;;;;;;10.10;7.70;;;;;;;;;;2087070;28;20041;-78
2023/12/24 05:44:19;;;;;;;11.07;8.18;;;;;;;;;;2083375;28;20029;-78
2023/12/24 05:45:40;;;;;;;12.65;7.70;;;;;;;;;;2087492;28;20396;-78
2023/12/24 05:47:01;;;;;;;9.05;7.53;;;;;;;;;;2086410;28;20045;-78
2023/12/24 05:48:22;;;;;;;11.98;7.82;;;;;;;;;;2085155;28;20126;-77
2023/12/24 05:49:43;;;;;;;10.13;7.63;;;;;;;;;;2092490;28;20059;-78
2023/12/24 05:51:04;;;;;;;14.45;9.40;;;;;;;;;;2085517;28;20139;-78
2023/12/24 05:52:25;;;;;;;13.85;8.68;;;;;;;;;;2088114;28;20025;-78
2023/12/24 05:53:45;;;;;;;14.10;8.52;;;;;;;;;;2083447;28;20029;-78
2023/12/24 05:55:07;;;;;;;13.32;8.40;;;;;;;;;;2090327;28;20033;-77
2023/12/24 05:56:28;;;;;;;13.93;8.80;;;;;;;;;;2087172;28;20068;-78
2023/12/24 05:57:49;;;;;;;11.50;8.23;;;;;;;;;;2091440;28;20084;-78
2023/12/24 05:59:10;;;;;;;12.77;8.30;;;;;;;;;;2096846;28;20098;-77
2023/12/24 06:00:32;;;;;;;13.55;8.77;;;;;;;;;;2101164;28;20043;-79
2023/12/24 06:01:53;;;;;;;11.43;7.53;;;;;;;;;;2096942;28;20024;-78
2023/12/24 06:03:14;;;;;;;10.38;7.63;;;;;;;;;;2097006;28;20028;-78
2023/12/24 06:04:34;;;;;;;11.40;8.43;;;;;;;;;;2096213;28;20519;-78
2023/12/24 06:05:55;;;;;;;11.23;7.75;;;;;;;;;;2090730;28;20047;-78
2023/12/24 06:07:16;;;;;;;11.32;7.82;;;;;;;;;;2091564;28;20059;-78
2023/12/24 06:08:38;;;;;;;11.70;8.75;;;;;;;;;;2094533;28;20041;-78
2023/12/24 06:09:59;;;;;;;13.20;9.05;;;;;;;;;;2094826;28;20060;-78
2023/12/24 06:11:19;;;;;;;13.15;9.50;;;;;;;;;;2096795;28;20032;-78
2023/12/24 06:12:40;;;;;;;10.65;7.47;;;;;;;;;;2095552;28;20029;-80
2023/12/24 06:14:02;;;;;;;10.82;8.07;;;;;;;;;;2092687;28;20024;-79
2023/12/24 06:15:23;;;;;;;10.95;7.30;;;;;;;;;;2094823;28;20077;-79
2023/12/24 06:16:44;;;;;;;13.02;9.13;;;;;;;;;;2095728;28;20033;-79
2023/12/24 06:18:05;;;;;;;10.30;7.40;;;;;;;;;;2095551;28;20112;-79
2023/12/24 06:19:26;;;;;;;10.50;8.10;;;;;;;;;;2091017;28;20037;-79
2023/12/24 06:20:47;;;;;;;10.88;7.40;;;;;;;;;;2096491;28;20029;-79
2023/12/24 06:22:08;;;;;;;10.95;8.23;;;;;;;;;;2092625;28;20507;-79
2023/12/24 06:23:29;;;;;;;12.25;8.50;;;;;;;;;;2090688;28;20071;-79
2023/12/24 06:24:50;;;;;;;14.63;9.20;;;;;;;;;;2092734;28;20028;-79
2023/12/24 06:26:10;;;;;;;9.95;7.43;;;;;;;;;;2095736;28;20035;-80
2023/12/24 06:27:31;;;;;;;12.27;8.68;;;;;;;;;;2094417;28;20044;-80
2023/12/24 06:28:52;;;;;;;14.18;8.52;;;;;;;;;;2096319;28;20036;-79
2023/12/24 06:30:13;;;;;;;9.52;8.40;;;;;;;;;;2093501;28;20431;-80
2023/12/24 06:31:34;;;;;;;11.93;8.02;;;;;;;;;;2092615;28;20032;-80
2023/12/24 06:32:55;;;;;;;9.68;6.88;;;;;;;;;;2093706;28;20048;-79
2023/12/24 06:34:16;;;;;;;8.98;7.13;;;;;;;;;;2096176;28;20078;-80
2023/12/24 06:35:37;;;;;;;12.30;8.15;;;;;;;;;;2095724;28;20080;-79
2023/12/24 06:36:58;;;;;;;9.75;7.88;;;;;;;;;;2092934;28;20400;-80
2023/12/24 06:38:19;;;;;;;9.52;7.60;;;;;;;;;;2096732;28;20141;-80
2023/12/24 06:39:40;;;;;;;11.05;7.78;;;;;;;;;;2101557;28;20028;-77
2023/12/24 06:41:01;;;;;;;11.57;8.75;;;;;;;;;;2100902;28;20036;-78
2023/12/24 06:42:25;;;;;;;11.15;7.93;;;;;;;;;;2095212;28;20085;-77
2023/12/24 06:43:46;;;;;;;11.25;8.57;;;;;;;;;;2092573;28;20049;-77
2023/12/24 06:45:07;;;;;;;11.52;8.30;;;;;;;;;;2090938;28;20102;-78
2023/12/24 06:46:28;;;;;;;12.35;8.52;;;;;;;;;;2092324;28;20032;-79
2023/12/24 06:47:49;;;;;;;12.73;8.00;;;;;;;;;;2094619;28;20117;-80
2023/12/24 06:49:10;;;;;;;11.10;7.43;;;;;;;;;;2087875;28;20033;-78
2023/12/24 06:50:31;;;;;;;11.27;7.65;;;;;;;;;;2091666;28;20553;-79
2023/12/24 06:51:52;;;;;;;10.63;7.28;;;;;;;;;;2092586;28;20032;-80
2023/12/24 06:53:13;;;;;;;10.95;7.25;;;;;;;;;;2094470;28;20069;-79
2023/12/24 06:54:34;;;;;;;8.77;7.05;;;;;;;;;;2095253;28;20043;-80
2023/12/24 06:55:55;;;;;;;10.32;7.68;;;;;;;;;;2095671;28;20032;-81
2023/12/24 06:57:16;;;;;;;12.38;7.65;;;;;;;;;;2093664;28;20581;-79
2023/12/24 06:58:37;;;;;;;10.70;7.43;;;;;;;;;;2092143;28;20024;-81
2023/12/24 06:59:57;;;;;;;9.90;7.15;;;;;;;;;;2091897;28;20139;-80
2023/12/24 07:01:18;;;;;;;11.95;7.95;;;;;;;;;;2101632;28;20433;-79
2023/12/24 07:02:39;;;;;;;12.13;8.07;;;;;;;;;;2093534;28;20031;-79
2023/12/24 07:04:00;;;;;;;11.00;7.22;;;;;;;;;;2093672;28;20044;-79
2023/12/24 07:05:21;;;;;;;10.88;7.95;;;;;;;;;;2088919;28;20032;-79
2023/12/24 07:06:42;;;;;;;13.23;8.35;;;;;;;;;;2102803;28;20094;-79
2023/12/24 07:08:03;;;;;;;12.95;9.23;;;;;;;;;;2089387;28;20036;-80
2023/12/24 07:09:24;;;;;;;14.43;8.57;;;;;;;;;;2100490;28;20024;-79
2023/12/24 07:10:44;;;;;;;12.63;8.77;;;;;;;;;;2091212;28;20048;-78
2023/12/24 07:12:06;;;;;;;11.45;8.32;;;;;;;;;;2092505;28;20032;-77
2023/12/24 07:13:27;;;;;;;12.85;9.13;;;;;;;;;;2091584;28;20040;-77
2023/12/24 07:14:47;;;;;;;14.73;8.77;;;;;;;;;;2092804;28;20036;-79
2023/12/24 07:16:08;;;;;;;10.75;8.18;;;;;;;;;;2089870;28;20025;-77
2023/12/24 07:17:29;;;;;;;13.95;9.38;;;;;;;;;;2089237;28;20113;-78
2023/12/24 07:18:53;;;;;;;12.00;8.35;;;;;;;;;;2093807;28;20043;-80
2023/12/24 07:20:14;;;;;;;13.82;8.65;;;;;;;;;;2094232;28;20032;-80
2023/12/24 07:21:35;;;;;;;12.27;8.13;;;;;;;;;;2092459;28;20075;-78
2023/12/24 07:22:56;;;;;;;12.63;8.98;;;;;;;;;;2090123;28;20036;-80
2023/12/24 07:24:17;;;;;;;13.52;8.55;;;;;;;;;;2092050;28;20062;-80
2023/12/24 07:25:38;;;;;;;12.73;8.43;;;;;;;;;;2090150;28;20345;-80
2023/12/24 07:26:59;;;;;;;11.73;8.73;;;;;;;;;;2096151;28;20033;-80
2023/12/24 07:28:22;;;;;;;13.50;8.65;;;;;;;;;;2094654;28;20488;-80
2023/12/24 07:29:43;;;;;;;13.95;7.85;;;;;;;;;;2092858;28;20033;-79
2023/12/24 07:31:04;;;;;;;9.80;7.35;;;;;;;;;;2092431;28;20507;-77
2023/12/24 07:32:25;;;;;;;11.05;8.00;;;;;;;;;;2092037;28;20033;-78
2023/12/24 07:33:46;;;;;;;12.68;8.73;;;;;;;;;;2091659;28;20025;-80
2023/12/24 07:35:08;;;;;;;10.95;7.93;;;;;;;;;;2091537;28;20045;-80
2023/12/24 07:36:29;;;;;;;13.02;9.38;;;;;;;;;;2090386;28;20036;-79
2023/12/24 07:37:50;;;;;;;12.35;8.23;;;;;;;;;;2095423;28;20043;-80
2023/12/24 07:39:10;;;;;;;12.35;8.05;;;;;;;;;;2096752;28;20090;-79
2023/12/24 07:40:31;;;;;;;12.45;8.63;;;;;;;;;;2091531;28;20564;-80
2023/12/24 07:41:55;;;;;;;14.38;9.27;;;;;;;;;;2098262;28;20114;-80
2023/12/24 07:43:16;;;;;;;12.63;9.13;;;;;;;;;;2092564;28;20036;-81
2023/12/24 07:44:37;;;;;;;13.38;9.27;;;;;;;;;;2093203;28;20514;-80
2023/12/24 07:45:58;;;;;;;14.75;8.00;;;;;;;;;;2093521;28;20029;-80
2023/12/24 07:47:19;;;;;;;12.40;9.30;;;;;;;;;;2095269;28;20095;-81
2023/12/24 07:48:40;;;;;;;12.98;8.57;;;;;;;;;;2094971;28;20043;-78
2023/12/24 07:50:00;;;;;;;11.68;8.13;;;;;;;;;;2092272;28;20062;-79
2023/12/24 07:51:21;;;;;;;12.75;8.40;;;;;;;;;;2090657;28;20430;-80
2023/12/24 07:52:42;;;;;;;12.60;8.48;;;;;;;;;;2095846;28;20028;-81
2023/12/24 07:54:03;;;;;;;11.18;8.27;;;;;;;;;;2096240;28;20029;-80
2023/12/24 07:55:24;;;;;;;13.00;8.45;;;;;;;;;;2096075;28;20029;-81
2023/12/24 07:56:45;;;;;;;11.90;8.90;;;;;;;;;;2095004;28;20040;-79
2023/12/24 07:58:06;;;;;;;11.45;8.20;;;;;;;;;;2085805;28;20495;-80
2023/12/24 07:59:27;;;;;;;13.70;8.77;;;;;;;;;;2092704;28;20044;-81